Time;durP1;ratioP1;P1;durP2;ratioP2;P2;SDS_P1;SDS_P2;PMS_P1;PMS_P2;Temp;Humidity;BMP_temperature;BMP_pressure;BME280_temperature;BME280_humidity;BME280_pressure;Samples;Min_cycle;Max_cycle;Signal;HPM_P1;HPM_P2
2023/10/25 00:02:08;;;;;;;239.60;16.13;;;;;;;;;;4974132;28;20499;-55
2023/10/25 00:04:33;;;;;;;177.50;13.23;;;;;;;;;;4974991;28;20138;-56
2023/10/25 00:06:58;;;;;;;201.55;14.50;;;;;;;;;;4974628;28;20040;-56
2023/10/25 00:09:23;;;;;;;158.20;12.45;;;;;;;;;;4976176;28;20454;-56
2023/10/25 00:11:49;;;;;;;190.40;14.07;;;;;;;;;;4974946;28;20038;-55
2023/10/25 00:14:14;;;;;;;237.73;16.30;;;;;;;;;;4975259;28;20603;-54
2023/10/25 00:16:39;;;;;;;176.00;12.80;;;;;;;;;;4976240;28;20041;-55
2023/10/25 00:19:04;;;;;;;308.30;18.63;;;;;;;;;;4972937;28;20034;-54
2023/10/25 00:21:30;;;;;;;164.53;13.93;;;;;;;;;;4973526;28;20549;-54
2023/10/25 00:23:55;;;;;;;208.90;15.88;;;;;;;;;;4975554;28;20331;-55
2023/10/25 00:26:20;;;;;;;175.52;14.43;;;;;;;;;;4976509;28;20046;-53
2023/10/25 00:28:46;;;;;;;187.95;15.23;;;;;;;;;;4981800;28;20018;-54
2023/10/25 00:31:11;;;;;;;243.82;16.45;;;;;;;;;;4980298;28;20046;-54
2023/10/25 00:33:36;;;;;;;198.10;14.75;;;;;;;;;;4969548;28;20208;-55
2023/10/25 00:36:01;;;;;;;202.07;14.57;;;;;;;;;;4978082;28;20354;-54
2023/10/25 00:38:27;;;;;;;196.75;14.63;;;;;;;;;;4978907;28;20316;-55
2023/10/25 00:40:52;;;;;;;206.20;15.00;;;;;;;;;;4978656;28;20046;-56
2023/10/25 00:43:20;;;;;;;268.63;17.50;;;;;;;;;;4976157;28;20037;-54
2023/10/25 00:45:52;;;;;;;211.15;15.05;;;;;;;;;;4978505;28;20269;-54
2023/10/25 00:48:17;;;;;;;300.35;19.15;;;;;;;;;;4979448;28;20044;-54
2023/10/25 00:50:43;;;;;;;184.93;13.40;;;;;;;;;;4980149;28;20436;-54
2023/10/25 00:53:08;;;;;;;286.63;16.95;;;;;;;;;;4976723;28;20975;-55
2023/10/25 00:55:33;;;;;;;217.68;13.50;;;;;;;;;;4979177;28;20031;-55
2023/10/25 00:57:58;;;;;;;195.60;15.47;;;;;;;;;;4979141;28;20036;-55
2023/10/25 01:00:25;;;;;;;196.10;14.20;;;;;;;;;;4977825;28;20282;-55
2023/10/25 01:02:50;;;;;;;161.52;13.32;;;;;;;;;;4979206;28;20118;-55
2023/10/25 01:05:15;;;;;;;269.30;15.40;;;;;;;;;;4976273;28;20549;-55
2023/10/25 01:07:40;;;;;;;210.07;14.00;;;;;;;;;;4981476;28;20347;-56
2023/10/25 01:10:06;;;;;;;220.07;13.13;;;;;;;;;;4975866;28;20311;-54
2023/10/25 01:12:31;;;;;;;219.30;15.35;;;;;;;;;;4978886;28;20265;-55
2023/10/25 01:14:57;;;;;;;185.07;15.07;;;;;;;;;;4977170;28;20080;-55
2023/10/25 01:17:23;;;;;;;235.40;15.60;;;;;;;;;;4977589;28;20571;-55
2023/10/25 01:19:48;;;;;;;163.00;12.43;;;;;;;;;;4979043;28;20022;-55
2023/10/25 01:22:13;;;;;;;320.02;20.15;;;;;;;;;;4976575;28;20054;-56
2023/10/25 01:24:38;;;;;;;210.85;15.52;;;;;;;;;;4968044;28;20452;-54
2023/10/25 01:27:04;;;;;;;174.77;11.80;;;;;;;;;;4977479;28;20070;-55
2023/10/25 01:29:29;;;;;;;178.20;14.80;;;;;;;;;;4978490;28;20034;-55
2023/10/25 01:31:54;;;;;;;252.25;16.48;;;;;;;;;;4979152;28;20277;-55
2023/10/25 01:34:19;;;;;;;259.63;16.77;;;;;;;;;;4978053;28;20014;-56
2023/10/25 01:36:45;;;;;;;233.93;15.55;;;;;;;;;;4977072;28;20335;-55
2023/10/25 01:39:10;;;;;;;322.33;18.65;;;;;;;;;;4978431;28;20029;-56
2023/10/25 01:41:35;;;;;;;177.07;12.93;;;;;;;;;;4978648;28;20045;-55
2023/10/25 01:44:00;;;;;;;249.20;15.13;;;;;;;;;;4977332;28;20243;-55
2023/10/25 01:46:25;;;;;;;207.73;12.67;;;;;;;;;;4977036;28;20278;-54
2023/10/25 01:48:51;;;;;;;178.83;12.13;;;;;;;;;;4980507;28;20772;-55
2023/10/25 01:51:16;;;;;;;237.10;12.73;;;;;;;;;;4976781;28;20283;-55
2023/10/25 01:53:41;;;;;;;209.02;13.68;;;;;;;;;;4977494;28;20277;-55
2023/10/25 01:56:06;;;;;;;194.83;14.13;;;;;;;;;;4975406;28;20038;-56
2023/10/25 01:58:32;;;;;;;139.55;12.80;;;;;;;;;;4980903;28;20269;-56
2023/10/25 02:00:57;;;;;;;187.00;13.47;;;;;;;;;;4977414;28;20041;-55
2023/10/25 02:03:22;;;;;;;262.92;17.30;;;;;;;;;;4974536;28;20266;-55
2023/10/25 02:05:48;;;;;;;218.40;14.65;;;;;;;;;;4975825;28;20145;-55
2023/10/25 02:08:13;;;;;;;197.47;15.00;;;;;;;;;;4976985;28;20076;-55
2023/10/25 02:10:38;;;;;;;221.53;15.43;;;;;;;;;;4976544;28;20285;-55
2023/10/25 02:13:03;;;;;;;249.88;15.90;;;;;;;;;;4977386;28;20313;-55
2023/10/25 02:15:29;;;;;;;187.43;14.05;;;;;;;;;;4976232;28;20044;-55
2023/10/25 02:17:54;;;;;;;161.75;12.80;;;;;;;;;;4978257;28;20026;-55
2023/10/25 02:20:19;;;;;;;251.48;16.80;;;;;;;;;;4977401;28;20034;-55
2023/10/25 02:22:44;;;;;;;191.25;13.43;;;;;;;;;;4978268;28;20014;-55
2023/10/25 02:25:10;;;;;;;235.52;15.70;;;;;;;;;;4976176;28;20111;-55
2023/10/25 02:27:35;;;;;;;167.63;11.13;;;;;;;;;;4979151;28;20568;-55
2023/10/25 02:30:00;;;;;;;184.82;13.27;;;;;;;;;;4977968;28;20028;-55
2023/10/25 02:32:25;;;;;;;187.93;10.40;;;;;;;;;;4975931;28;22397;-55
2023/10/25 02:34:51;;;;;;;199.67;14.50;;;;;;;;;;4976737;28;20023;-55
2023/10/25 02:37:17;;;;;;;293.13;19.38;;;;;;;;;;4975900;28;20369;-55
2023/10/25 02:39:42;;;;;;;220.73;16.08;;;;;;;;;;4976722;28;20026;-54
2023/10/25 02:42:08;;;;;;;189.68;13.27;;;;;;;;;;4976991;28;20034;-55
2023/10/25 02:44:33;;;;;;;261.33;15.23;;;;;;;;;;4976213;28;20026;-54
2023/10/25 02:46:58;;;;;;;221.18;16.17;;;;;;;;;;4976105;28;20039;-54
2023/10/25 02:49:23;;;;;;;203.95;16.02;;;;;;;;;;4978031;28;20022;-54
2023/10/25 02:51:49;;;;;;;250.55;17.10;;;;;;;;;;4976270;28;20449;-55
2023/10/25 02:54:14;;;;;;;335.53;20.27;;;;;;;;;;4974479;28;20509;-55
2023/10/25 02:56:39;;;;;;;219.75;15.55;;;;;;;;;;4976694;28;20265;-54
2023/10/25 02:59:04;;;;;;;239.43;14.90;;;;;;;;;;4976772;28;20304;-56
2023/10/25 03:01:30;;;;;;;211.35;14.98;;;;;;;;;;4974319;28;20284;-55
2023/10/25 03:03:55;;;;;;;187.02;11.80;;;;;;;;;;4975700;28;20038;-54
2023/10/25 03:06:20;;;;;;;225.70;15.88;;;;;;;;;;4976213;28;20353;-55
2023/10/25 03:08:46;;;;;;;220.60;14.07;;;;;;;;;;4976444;28;20015;-55
2023/10/25 03:11:11;;;;;;;200.35;16.10;;;;;;;;;;4977963;28;20552;-55
2023/10/25 03:13:37;;;;;;;189.32;14.80;;;;;;;;;;4977677;28;20418;-55
2023/10/25 03:16:02;;;;;;;208.38;13.63;;;;;;;;;;4976187;28;20057;-54
2023/10/25 03:18:27;;;;;;;281.00;17.77;;;;;;;;;;4977148;28;20036;-55
2023/10/25 03:20:52;;;;;;;186.25;13.52;;;;;;;;;;4975280;28;20043;-55
2023/10/25 03:23:18;;;;;;;183.30;13.17;;;;;;;;;;4976163;28;20468;-54
2023/10/25 03:25:43;;;;;;;182.88;13.73;;;;;;;;;;4977288;28;20803;-55
2023/10/25 03:28:08;;;;;;;143.63;13.13;;;;;;;;;;4978987;28;20015;-55
2023/10/25 03:30:35;;;;;;;199.83;11.97;;;;;;;;;;4976689;28;20282;-55
2023/10/25 03:33:00;;;;;;;191.50;14.38;;;;;;;;;;4978016;28;20681;-55
2023/10/25 03:35:26;;;;;;;229.00;15.43;;;;;;;;;;4976881;28;20018;-55
2023/10/25 03:37:51;;;;;;;209.55;13.70;;;;;;;;;;4977605;28;20268;-55
2023/10/25 03:40:17;;;;;;;238.32;16.30;;;;;;;;;;4976516;28;20026;-55
2023/10/25 03:42:42;;;;;;;171.50;13.68;;;;;;;;;;4977716;28;20314;-55
2023/10/25 03:45:08;;;;;;;209.35;14.32;;;;;;;;;;4978548;28;20015;-55
2023/10/25 03:47:39;;;;;;;206.27;13.82;;;;;;;;;;4977062;28;20089;-55
2023/10/25 03:50:05;;;;;;;163.65;11.55;;;;;;;;;;4976443;28;20068;-56
2023/10/25 03:52:30;;;;;;;225.63;14.43;;;;;;;;;;4973717;28;20045;-55
2023/10/25 03:54:56;;;;;;;183.95;12.65;;;;;;;;;;4977144;28;20057;-56
2023/10/25 03:57:21;;;;;;;234.80;15.15;;;;;;;;;;4975641;28;20042;-55
2023/10/25 03:59:46;;;;;;;146.25;11.70;;;;;;;;;;4974383;28;20030;-55
2023/10/25 04:02:11;;;;;;;202.17;12.27;;;;;;;;;;4975957;28;20038;-55
2023/10/25 04:04:37;;;;;;;164.13;12.07;;;;;;;;;;4976159;28;20262;-55
2023/10/25 04:07:02;;;;;;;191.30;12.68;;;;;;;;;;4977197;28;20415;-55
2023/10/25 04:09:27;;;;;;;273.92;17.55;;;;;;;;;;4974318;28;20510;-56
2023/10/25 04:11:52;;;;;;;223.90;14.50;;;;;;;;;;4974527;28;20088;-55
2023/10/25 04:14:18;;;;;;;326.55;17.90;;;;;;;;;;4975114;28;20050;-56
2023/10/25 04:16:43;;;;;;;244.10;14.77;;;;;;;;;;4978324;28;20038;-55
2023/10/25 04:19:08;;;;;;;160.10;10.63;;;;;;;;;;4978865;28;20817;-55
2023/10/25 04:21:34;;;;;;;216.73;13.80;;;;;;;;;;4974434;28;20035;-56
2023/10/25 04:23:59;;;;;;;285.00;15.00;;;;;;;;;;4976355;28;20026;-55
2023/10/25 04:26:25;;;;;;;220.13;14.32;;;;;;;;;;4975828;28;20089;-55
2023/10/25 04:28:50;;;;;;;226.05;14.13;;;;;;;;;;4975842;28;20014;-55
2023/10/25 04:31:17;;;;;;;234.32;14.50;;;;;;;;;;4970338;28;20069;-56
2023/10/25 04:33:42;;;;;;;204.10;14.15;;;;;;;;;;4975104;28;20066;-56
2023/10/25 04:36:07;;;;;;;222.27;14.70;;;;;;;;;;4975046;28;20156;-56
2023/10/25 04:38:33;;;;;;;193.50;14.18;;;;;;;;;;4973904;28;20144;-56
2023/10/25 04:40:58;;;;;;;202.27;14.15;;;;;;;;;;4974416;28;20052;-55
2023/10/25 04:43:23;;;;;;;235.68;14.57;;;;;;;;;;4973045;28;20044;-55
2023/10/25 04:45:51;;;;;;;217.07;13.10;;;;;;;;;;4975987;28;20042;-55
2023/10/25 04:48:16;;;;;;;187.65;14.70;;;;;;;;;;4974573;28;20081;-56
2023/10/25 04:50:42;;;;;;;217.55;13.95;;;;;;;;;;4972163;28;20125;-56
2023/10/25 04:53:07;;;;;;;227.20;14.88;;;;;;;;;;4974827;28;20580;-56
2023/10/25 04:55:36;;;;;;;315.35;18.92;;;;;;;;;;4971957;28;20034;-56
2023/10/25 04:58:01;;;;;;;224.57;15.57;;;;;;;;;;4974567;28;20041;-55
2023/10/25 05:00:27;;;;;;;239.95;16.60;;;;;;;;;;4973047;28;20038;-55
2023/10/25 05:02:52;;;;;;;250.60;16.98;;;;;;;;;;4976015;28;20081;-56
2023/10/25 05:05:18;;;;;;;229.13;17.23;;;;;;;;;;4973936;28;20030;-55
2023/10/25 05:07:43;;;;;;;201.48;15.00;;;;;;;;;;4977409;28;20015;-55
2023/10/25 05:10:09;;;;;;;265.08;21.40;;;;;;;;;;4978035;28;20019;-55
2023/10/25 05:12:39;;;;;;;303.30;20.27;;;;;;;;;;4977368;28;20472;-55
2023/10/25 05:15:14;;;;;;;235.77;16.55;;;;;;;;;;4978401;28;20510;-55
2023/10/25 05:17:40;;;;;;;234.60;17.70;;;;;;;;;;4975778;28;20369;-55
2023/10/25 05:20:06;;;;;;;235.00;16.80;;;;;;;;;;4975620;28;20456;-56
2023/10/25 05:22:35;;;;;;;335.83;21.83;;;;;;;;;;4977491;28;20490;-55
2023/10/25 05:25:01;;;;;;;239.07;17.30;;;;;;;;;;4977229;28;20023;-56
2023/10/25 05:27:27;;;;;;;188.15;13.60;;;;;;;;;;4975374;28;20429;-55
2023/10/25 05:29:52;;;;;;;174.68;13.02;;;;;;;;;;4977171;28;20104;-55
2023/10/25 05:32:18;;;;;;;229.13;17.77;;;;;;;;;;4974945;28;20041;-57
2023/10/25 05:34:44;;;;;;;159.23;16.98;;;;;;;;;;4979761;28;20411;-55
2023/10/25 05:37:09;;;;;;;191.88;18.05;;;;;;;;;;4979398;28;20563;-55
2023/10/25 05:39:35;;;;;;;307.70;21.90;;;;;;;;;;4976623;28;20022;-56
2023/10/25 05:42:03;;;;;;;187.55;17.52;;;;;;;;;;4978714;28;20501;-56
2023/10/25 05:44:29;;;;;;;273.30;20.02;;;;;;;;;;4979207;28;20045;-55
2023/10/25 05:46:54;;;;;;;233.05;18.95;;;;;;;;;;4979905;28;20035;-55
2023/10/25 05:49:19;;;;;;;194.53;18.27;;;;;;;;;;4977265;28;20018;-55
2023/10/25 05:51:44;;;;;;;235.30;17.58;;;;;;;;;;4978168;28;20278;-55
2023/10/25 05:54:10;;;;;;;244.77;16.63;;;;;;;;;;4979673;28;20035;-55
2023/10/25 05:56:36;;;;;;;255.85;20.50;;;;;;;;;;4975953;28;20068;-55
2023/10/25 05:59:01;;;;;;;213.00;17.58;;;;;;;;;;4979368;28;20185;-55
2023/10/25 06:01:34;;;;;;;211.77;16.73;;;;;;;;;;4977851;28;20035;-55
2023/10/25 06:04:01;;;;;;;233.13;15.15;;;;;;;;;;4980456;28;20028;-55
2023/10/25 06:06:26;;;;;;;287.55;20.75;;;;;;;;;;4976711;28;20034;-56
2023/10/25 06:08:52;;;;;;;222.15;17.00;;;;;;;;;;4977213;28;20236;-55
2023/10/25 06:11:17;;;;;;;258.75;19.73;;;;;;;;;;4977371;28;20601;-55
2023/10/25 06:13:42;;;;;;;231.45;18.25;;;;;;;;;;4976967;28;20491;-55
2023/10/25 06:16:08;;;;;;;174.95;15.85;;;;;;;;;;4977004;28;20356;-56
2023/10/25 06:18:33;;;;;;;337.77;21.63;;;;;;;;;;4973201;28;20588;-54
2023/10/25 06:20:58;;;;;;;185.13;17.48;;;;;;;;;;4977632;28;20041;-55
2023/10/25 06:23:24;;;;;;;317.23;23.33;;;;;;;;;;4976018;28;20026;-55
2023/10/25 06:25:49;;;;;;;237.47;18.53;;;;;;;;;;4977264;28;20735;-56
2023/10/25 06:28:14;;;;;;;240.30;18.77;;;;;;;;;;4978408;28;20350;-55
2023/10/25 06:30:40;;;;;;;209.07;18.40;;;;;;;;;;4976498;28;20357;-55
2023/10/25 06:33:05;;;;;;;218.03;18.97;;;;;;;;;;4977683;28;20406;-55
2023/10/25 06:35:30;;;;;;;295.50;22.25;;;;;;;;;;4975568;28;20274;-55
2023/10/25 06:37:56;;;;;;;217.05;18.77;;;;;;;;;;4976167;28;20030;-55
2023/10/25 06:40:22;;;;;;;224.18;17.27;;;;;;;;;;4975342;28;20097;-55
2023/10/25 06:42:47;;;;;;;214.57;19.38;;;;;;;;;;4978251;28;20018;-55
2023/10/25 06:45:14;;;;;;;228.73;18.90;;;;;;;;;;4977305;28;20026;-54
2023/10/25 06:47:41;;;;;;;204.73;12.25;;;;;;;;;;4975517;28;20018;-55
2023/10/25 06:50:07;;;;;;;216.77;18.45;;;;;;;;;;4977411;28;20026;-55
2023/10/25 06:52:32;;;;;;;274.40;20.27;;;;;;;;;;4974351;28;20023;-54
2023/10/25 06:54:57;;;;;;;274.88;20.70;;;;;;;;;;4975267;28;20026;-55
2023/10/25 06:57:23;;;;;;;259.58;20.38;;;;;;;;;;4977138;28;20474;-56
2023/10/25 06:59:48;;;;;;;221.73;18.83;;;;;;;;;;4975280;28;20746;-55
2023/10/25 07:02:13;;;;;;;200.77;19.08;;;;;;;;;;4975887;28;20037;-55
2023/10/25 07:04:40;;;;;;;288.10;21.40;;;;;;;;;;4979876;28;20119;-55
2023/10/25 07:07:06;;;;;;;186.40;17.40;;;;;;;;;;4980834;28;20274;-55
2023/10/25 07:09:31;;;;;;;211.90;20.10;;;;;;;;;;4978682;28;20022;-55
2023/10/25 07:11:57;;;;;;;162.50;18.45;;;;;;;;;;4980011;28;20050;-56
2023/10/25 07:14:22;;;;;;;123.18;16.67;;;;;;;;;;4980488;28;20116;-56
2023/10/25 07:16:47;;;;;;;168.48;19.48;;;;;;;;;;4980603;28;20058;-57
2023/10/25 07:19:13;;;;;;;208.73;21.47;;;;;;;;;;4979117;28;20023;-57
2023/10/25 07:21:38;;;;;;;192.15;19.90;;;;;;;;;;4980357;28;20269;-55
2023/10/25 07:24:03;;;;;;;182.15;18.05;;;;;;;;;;4979876;28;20215;-55
2023/10/25 07:26:29;;;;;;;201.43;18.52;;;;;;;;;;4977609;28;20096;-56
2023/10/25 07:28:54;;;;;;;160.43;17.55;;;;;;;;;;4978375;28;20728;-56
2023/10/25 07:31:19;;;;;;;107.10;15.53;;;;;;;;;;4978023;28;20042;-56
2023/10/25 07:33:44;;;;;;;210.03;18.37;;;;;;;;;;4977504;28;20304;-55
2023/10/25 07:36:10;;;;;;;156.32;16.35;;;;;;;;;;4979682;28;20317;-56
2023/10/25 07:38:36;;;;;;;158.65;14.77;;;;;;;;;;4978602;28;20026;-56
2023/10/25 07:41:01;;;;;;;144.43;13.75;;;;;;;;;;4983543;28;20125;-56
2023/10/25 07:43:26;;;;;;;179.97;14.70;;;;;;;;;;4977293;28;20492;-56
2023/10/25 07:45:52;;;;;;;82.50;11.60;;;;;;;;;;4980441;28;20328;-56
2023/10/25 07:48:17;;;;;;;183.23;13.93;;;;;;;;;;4978929;28;20289;-57
2023/10/25 07:50:42;;;;;;;228.27;16.73;;;;;;;;;;4975511;28;20046;-57
2023/10/25 07:53:08;;;;;;;103.50;12.57;;;;;;;;;;4979609;28;20556;-56
2023/10/25 07:55:33;;;;;;;256.73;17.45;;;;;;;;;;4974419;28;20291;-55
2023/10/25 07:57:58;;;;;;;151.30;12.98;;;;;;;;;;4977333;28;20501;-55
2023/10/25 08:00:24;;;;;;;98.20;10.98;;;;;;;;;;4980527;28;20454;-55
2023/10/25 08:02:49;;;;;;;98.90;10.85;;;;;;;;;;4980564;28;20014;-55
2023/10/25 08:05:14;;;;;;;153.73;11.65;;;;;;;;;;4980737;28;20441;-55
2023/10/25 08:07:41;;;;;;;296.92;72.03;;;;;;;;;;4978447;28;20023;-55
2023/10/25 08:10:07;;;;;;;141.77;45.45;;;;;;;;;;4979879;28;20350;-58
2023/10/25 08:12:35;;;;;;;274.48;50.63;;;;;;;;;;4977662;28;20087;-55
2023/10/25 08:15:01;;;;;;;134.98;16.42;;;;;;;;;;4979855;28;20022;-55
2023/10/25 08:17:26;;;;;;;83.70;9.48;;;;;;;;;;4977211;28;20036;-55
2023/10/25 08:19:51;;;;;;;145.13;9.90;;;;;;;;;;4982217;28;20080;-56
2023/10/25 08:22:16;;;;;;;120.67;8.17;;;;;;;;;;4979987;28;20274;-55
2023/10/25 08:24:42;;;;;;;182.38;13.48;;;;;;;;;;4979029;28;20261;-55
2023/10/25 08:27:07;;;;;;;105.13;8.35;;;;;;;;;;4982008;28;20048;-56
2023/10/25 08:29:32;;;;;;;163.75;11.77;;;;;;;;;;4981617;28;20022;-56
2023/10/25 08:31:57;;;;;;;103.68;9.70;;;;;;;;;;4978716;28;20045;-56
2023/10/25 08:34:23;;;;;;;139.32;10.57;;;;;;;;;;4980333;28;20030;-57
2023/10/25 08:36:49;;;;;;;114.65;10.68;;;;;;;;;;4979128;28;20038;-56
2023/10/25 08:39:14;;;;;;;80.32;7.70;;;;;;;;;;4980925;28;20014;-57
2023/10/25 08:41:40;;;;;;;186.65;12.80;;;;;;;;;;4980718;28;20041;-56
2023/10/25 08:44:06;;;;;;;131.15;10.25;;;;;;;;;;4981524;28;20022;-56
2023/10/25 08:46:33;;;;;;;188.45;13.13;;;;;;;;;;4980727;28;20529;-57
2023/10/25 08:48:58;;;;;;;155.93;10.45;;;;;;;;;;4983113;28;20023;-56
2023/10/25 08:51:24;;;;;;;166.02;10.18;;;;;;;;;;4982211;28;20092;-60
2023/10/25 08:53:52;;;;;;;130.93;9.50;;;;;;;;;;4980896;28;20393;-56
2023/10/25 08:56:17;;;;;;;134.00;9.00;;;;;;;;;;4981222;28;20518;-55
2023/10/25 08:58:43;;;;;;;400.42;18.83;;;;;;;;;;4981707;28;20034;-56
2023/10/25 09:01:08;;;;;;;100.30;7.35;;;;;;;;;;4982667;28;20081;-55
2023/10/25 09:03:38;;;;;;;214.87;12.83;;;;;;;;;;4981029;28;20418;-56
2023/10/25 09:06:04;;;;;;;119.57;7.15;;;;;;;;;;4979107;28;20638;-55
2023/10/25 09:08:31;;;;;;;168.05;8.35;;;;;;;;;;4981070;28;20496;-55
2023/10/25 09:10:56;;;;;;;125.28;7.63;;;;;;;;;;4982733;28;20049;-56
2023/10/25 09:13:22;;;;;;;74.55;7.28;;;;;;;;;;4978403;28;20034;-56
2023/10/25 09:15:47;;;;;;;208.88;13.60;;;;;;;;;;4979378;28;20069;-56
2023/10/25 09:18:13;;;;;;;181.07;13.68;;;;;;;;;;4982309;28;20054;-56
2023/10/25 09:20:38;;;;;;;163.47;8.27;;;;;;;;;;4982010;28;20061;-56
2023/10/25 09:23:10;;;;;;;158.15;8.75;;;;;;;;;;4984526;28;20662;-57
2023/10/25 09:25:37;;;;;;;296.95;13.25;;;;;;;;;;4980528;28;20405;-56
2023/10/25 09:28:02;;;;;;;110.93;7.57;;;;;;;;;;4982554;28;20526;-55
2023/10/25 09:30:29;;;;;;;343.58;86.88;;;;;;;;;;4980611;28;20052;-56
2023/10/25 09:32:54;;;;;;;145.13;10.52;;;;;;;;;;4977125;28;20025;-57
2023/10/25 09:35:19;;;;;;;128.55;9.48;;;;;;;;;;4980675;28;20026;-56
2023/10/25 09:37:44;;;;;;;215.35;12.30;;;;;;;;;;4982476;28;20054;-57
2023/10/25 09:40:10;;;;;;;180.80;9.93;;;;;;;;;;4981916;28;20019;-55
2023/10/25 09:42:38;;;;;;;169.50;10.45;;;;;;;;;;4979992;28;20073;-55
2023/10/25 09:45:04;;;;;;;226.80;53.85;;;;;;;;;;4980909;28;20019;-57
2023/10/25 09:47:32;;;;;;;284.60;72.65;;;;;;;;;;4981095;28;20509;-55
2023/10/25 09:50:09;;;;;;;166.82;13.93;;;;;;;;;;4980991;28;20037;-56
2023/10/25 09:52:35;;;;;;;593.75;175.25;;;;;;;;;;4978633;28;20030;-56
2023/10/25 09:55:08;;;;;;;133.90;9.18;;;;;;;;;;4981437;28;20019;-57
2023/10/25 09:57:34;;;;;;;136.77;10.30;;;;;;;;;;4981922;28;20035;-56
2023/10/25 09:59:59;;;;;;;312.00;78.50;;;;;;;;;;4981308;28;20025;-56
2023/10/25 10:03:03;;;;;;;151.40;9.48;;;;;;;;;;4980670;28;20030;-56
2023/10/25 10:05:41;;;;;;;281.17;96.28;;;;;;;;;;4959817;28;20109;-56
2023/10/25 10:08:14;;;;;;;147.25;10.60;;;;;;;;;;4958292;28;20518;-56
2023/10/25 10:10:44;;;;;;;226.13;16.35;;;;;;;;;;4968073;28;20100;-56
2023/10/25 10:13:16;;;;;;;343.20;189.70;;;;;;;;;;4979172;28;20030;-56
2023/10/25 10:16:00;;;;;;;231.38;13.57;;;;;;;;;;4978732;28;20038;-56
2023/10/25 10:18:31;;;;;;;660.33;212.00;;;;;;;;;;4981742;28;20084;-56
2023/10/25 10:21:03;;;;;;;114.07;8.35;;;;;;;;;;4980498;28;20442;-56
2023/10/25 10:23:33;;;;;;;305.58;106.88;;;;;;;;;;4979605;28;20137;-56
2023/10/25 10:25:59;;;;;;;123.38;8.18;;;;;;;;;;4979435;28;20047;-56
2023/10/25 10:28:35;;;;;;;309.52;90.68;;;;;;;;;;4981692;28;20026;-57
2023/10/25 10:31:01;;;;;;;138.48;6.90;;;;;;;;;;4980090;28;20139;-57
2023/10/25 10:33:26;;;;;;;102.18;7.63;;;;;;;;;;4978206;28;20057;-58
2023/10/25 10:35:51;;;;;;;294.25;48.35;;;;;;;;;;4980426;28;20115;-58
2023/10/25 10:38:17;;;;;;;203.40;37.97;;;;;;;;;;4980512;28;20445;-57
2023/10/25 10:40:42;;;;;;;218.30;11.48;;;;;;;;;;4977093;28;20754;-55
2023/10/25 10:43:07;;;;;;;152.70;8.70;;;;;;;;;;4978754;28;20022;-57
2023/10/25 10:45:33;;;;;;;136.52;7.88;;;;;;;;;;4981490;28;20366;-56
2023/10/25 10:48:01;;;;;;;93.10;6.32;;;;;;;;;;4977335;28;20029;-56
2023/10/25 10:50:27;;;;;;;147.05;7.90;;;;;;;;;;4978821;28;20041;-56
2023/10/25 10:52:52;;;;;;;298.67;83.63;;;;;;;;;;4976486;28;20011;-57
2023/10/25 10:55:19;;;;;;;130.93;7.90;;;;;;;;;;4981263;28;20452;-57
2023/10/25 10:57:44;;;;;;;277.15;24.00;;;;;;;;;;4979514;28;20556;-56
2023/10/25 11:00:11;;;;;;;105.25;7.60;;;;;;;;;;4981665;28;20102;-56
2023/10/25 11:02:37;;;;;;;174.15;67.22;;;;;;;;;;4980896;28;20014;-56
2023/10/25 11:05:03;;;;;;;169.52;55.03;;;;;;;;;;4980527;28;20053;-56
2023/10/25 11:07:28;;;;;;;249.55;94.75;;;;;;;;;;4980726;28;20038;-56
2023/10/25 11:09:54;;;;;;;230.77;68.50;;;;;;;;;;4978327;28;20027;-56
2023/10/25 11:12:20;;;;;;;126.25;7.78;;;;;;;;;;4981255;28;20273;-55
2023/10/25 11:14:45;;;;;;;307.33;49.35;;;;;;;;;;4982031;28;20033;-55
2023/10/25 11:17:11;;;;;;;113.25;7.55;;;;;;;;;;4981656;28;20042;-56
2023/10/25 11:19:37;;;;;;;266.02;61.97;;;;;;;;;;4981539;28;20121;-55
2023/10/25 11:22:02;;;;;;;84.80;6.28;;;;;;;;;;4980692;28;20034;-56
2023/10/25 11:24:27;;;;;;;283.45;123.63;;;;;;;;;;4981678;28;20030;-56
2023/10/25 11:26:53;;;;;;;233.27;12.00;;;;;;;;;;4976463;28;20035;-56
2023/10/25 11:29:18;;;;;;;254.20;57.72;;;;;;;;;;4977260;28;20273;-56
2023/10/25 11:31:44;;;;;;;539.00;126.20;;;;;;;;;;4977659;28;20034;-56
2023/10/25 11:34:09;;;;;;;157.48;24.58;;;;;;;;;;4980526;28;20265;-56
2023/10/25 11:36:35;;;;;;;99.00;6.60;;;;;;;;;;4981117;28;20041;-58
2023/10/25 11:39:06;;;;;;;256.85;65.72;;;;;;;;;;4979509;28;20030;-56
2023/10/25 11:41:32;;;;;;;109.18;7.00;;;;;;;;;;4978877;28;20114;-55
2023/10/25 11:43:59;;;;;;;102.07;6.97;;;;;;;;;;4980575;28;20144;-57
2023/10/25 11:46:28;;;;;;;84.15;6.50;;;;;;;;;;4979376;28;20049;-56
2023/10/25 11:48:57;;;;;;;205.98;14.25;;;;;;;;;;4981976;28;20426;-56
2023/10/25 11:51:24;;;;;;;243.57;43.22;;;;;;;;;;4979461;28;20490;-56
2023/10/25 11:53:49;;;;;;;199.70;11.65;;;;;;;;;;4980727;28;20501;-56
2023/10/25 11:56:15;;;;;;;148.50;15.13;;;;;;;;;;4979373;28;20038;-55
2023/10/25 11:58:40;;;;;;;258.95;38.45;;;;;;;;;;4977570;28;20285;-54
2023/10/25 12:01:06;;;;;;;156.63;10.52;;;;;;;;;;4977735;28;20033;-56
2023/10/25 12:03:31;;;;;;;405.13;167.32;;;;;;;;;;4976943;28;20438;-56
2023/10/25 12:05:56;;;;;;;243.38;31.73;;;;;;;;;;4976068;28;20096;-55
2023/10/25 12:08:22;;;;;;;170.50;11.53;;;;;;;;;;4978890;28;20022;-54
2023/10/25 12:10:47;;;;;;;233.15;14.88;;;;;;;;;;4975580;28;20647;-56
2023/10/25 12:13:12;;;;;;;170.63;24.85;;;;;;;;;;4981092;28;20037;-55
2023/10/25 12:15:37;;;;;;;150.60;12.10;;;;;;;;;;4979063;28;20402;-56
2023/10/25 12:18:03;;;;;;;158.30;13.17;;;;;;;;;;4978145;28;20032;-56
2023/10/25 12:20:28;;;;;;;188.27;12.98;;;;;;;;;;4978287;28;20571;-55
2023/10/25 12:22:54;;;;;;;265.43;16.20;;;;;;;;;;4979806;28;20019;-56
2023/10/25 12:25:19;;;;;;;145.00;11.85;;;;;;;;;;4981124;28;20373;-56
2023/10/25 12:27:44;;;;;;;574.03;160.50;;;;;;;;;;4981940;28;20421;-56
2023/10/25 12:30:10;;;;;;;145.70;9.77;;;;;;;;;;4982109;28;20453;-55
2023/10/25 12:32:36;;;;;;;182.35;13.50;;;;;;;;;;4984438;28;20269;-56
2023/10/25 12:35:01;;;;;;;183.88;13.00;;;;;;;;;;4981605;28;20076;-55
2023/10/25 12:37:28;;;;;;;181.57;24.77;;;;;;;;;;4982741;28;20398;-56
2023/10/25 12:39:53;;;;;;;220.13;50.78;;;;;;;;;;4984112;28;20023;-55
2023/10/25 12:42:19;;;;;;;171.30;12.57;;;;;;;;;;4982824;28;20180;-55
2023/10/25 12:44:44;;;;;;;210.82;20.83;;;;;;;;;;4983999;28;20405;-55
2023/10/25 12:47:09;;;;;;;94.65;9.15;;;;;;;;;;4984643;28;20038;-57
2023/10/25 12:49:35;;;;;;;175.13;11.98;;;;;;;;;;4983884;28;20022;-55
2023/10/25 12:52:02;;;;;;;156.95;11.85;;;;;;;;;;4982398;28;20061;-55
2023/10/25 12:54:27;;;;;;;110.43;10.50;;;;;;;;;;4983346;28;20573;-55
2023/10/25 12:56:52;;;;;;;142.73;10.70;;;;;;;;;;4982492;28;20451;-56
2023/10/25 12:59:17;;;;;;;162.23;11.85;;;;;;;;;;4981299;28;20027;-55
2023/10/25 13:01:43;;;;;;;142.57;11.30;;;;;;;;;;4981414;28;20045;-55
2023/10/25 13:04:08;;;;;;;153.35;11.45;;;;;;;;;;4983602;28;20780;-55
2023/10/25 13:06:34;;;;;;;150.63;11.33;;;;;;;;;;4982459;28;20058;-55
2023/10/25 13:08:59;;;;;;;215.93;12.82;;;;;;;;;;4981678;28;20266;-55
2023/10/25 13:11:24;;;;;;;137.98;11.88;;;;;;;;;;4984559;28;20046;-56
2023/10/25 13:13:50;;;;;;;230.27;15.05;;;;;;;;;;4983307;28;20238;-56
2023/10/25 13:16:15;;;;;;;152.97;13.13;;;;;;;;;;4981907;28;20041;-56
2023/10/25 13:18:40;;;;;;;132.65;11.27;;;;;;;;;;4982624;28;20832;-56
2023/10/25 13:21:06;;;;;;;262.67;42.63;;;;;;;;;;4979581;28;20038;-54
2023/10/25 13:23:31;;;;;;;148.77;10.75;;;;;;;;;;4983734;28;20109;-56
2023/10/25 13:25:56;;;;;;;159.13;11.52;;;;;;;;;;4984320;28;20057;-56
2023/10/25 13:28:22;;;;;;;165.35;18.40;;;;;;;;;;4981436;28;20018;-56
2023/10/25 13:30:48;;;;;;;234.07;38.45;;;;;;;;;;4977583;28;20354;-55
2023/10/25 13:33:13;;;;;;;96.70;10.60;;;;;;;;;;4982688;28;20565;-57
2023/10/25 13:35:39;;;;;;;157.15;10.27;;;;;;;;;;4981219;28;20037;-55
2023/10/25 13:38:04;;;;;;;165.00;11.85;;;;;;;;;;4983010;28;20029;-56
2023/10/25 13:40:29;;;;;;;253.95;68.60;;;;;;;;;;4981299;28;20426;-56
2023/10/25 13:42:54;;;;;;;423.30;155.02;;;;;;;;;;4982611;28;20030;-57
2023/10/25 13:45:20;;;;;;;142.15;10.68;;;;;;;;;;4985211;28;20444;-58
2023/10/25 13:47:45;;;;;;;95.47;10.50;;;;;;;;;;4982694;28;20050;-56
2023/10/25 13:50:10;;;;;;;113.03;11.77;;;;;;;;;;4983209;28;20285;-55
2023/10/25 13:52:35;;;;;;;502.98;166.95;;;;;;;;;;4982490;28;20258;-56
2023/10/25 13:55:02;;;;;;;289.00;97.10;;;;;;;;;;4982265;28;20022;-56
2023/10/25 13:57:27;;;;;;;123.35;12.25;;;;;;;;;;4982894;28;20038;-56
2023/10/25 13:59:52;;;;;;;222.00;17.63;;;;;;;;;;4981798;28;20014;-56